McClusky, North Dakota
Current Conditions -  °F | °C
As of 10:55 AM on Friday 28 Nov 2014 (Local Time) from K5H4 Reporting Station
Haze Haze  
Wind Chill: -10°   Ceiling: 600
Heat Index:   Visibility: 4mi
Dew Point:   Wind: 17mph
Humidity: 92%   Direction: 120°ESE
Pressure: 29.8"   Gusts: NA
Location:  47.49°N, 100.44°W
Report Text: K5H4 281655Z AUTO 12015KT 4SM BR BKN006 OVC028 M13/M14 A2980 RMK AO2
Loading
Personal Weather Stations






























Interactive Weather Map New forecast layout! Learn more

10-Day Weather Forecast

Advertisements
Track Severe Weather on mobile